createdAt,value
2018-06-05T00:00:08.729Z,19.23
2018-06-05T00:01:08.737Z,19.25
2018-06-05T00:02:08.754Z,19.38
2018-06-05T00:03:08.768Z,19.35
2018-06-05T00:04:08.796Z,19.23
2018-06-05T00:05:08.792Z,19.23
2018-06-05T00:06:08.804Z,19.31
2018-06-05T00:07:08.833Z,19.25
2018-06-05T00:08:08.829Z,19.29
2018-06-05T00:09:08.848Z,19.17
2018-06-05T00:10:08.863Z,18.99
2018-06-05T00:11:08.871Z,18.97
2018-06-05T00:12:08.880Z,18.91
2018-06-05T00:13:08.906Z,18.84
2018-06-05T00:14:08.908Z,18.84
2018-06-05T00:15:08.932Z,18.73
2018-06-05T00:16:08.963Z,18.67
2018-06-05T00:17:08.948Z,18.62
2018-06-05T00:18:09.101Z,18.73
2018-06-05T00:19:08.972Z,18.70
2018-06-05T00:20:08.984Z,18.77
2018-06-05T00:21:09.008Z,18.84
2018-06-05T00:22:09.012Z,18.86
2018-06-05T00:23:09.056Z,18.91
2018-06-05T00:24:09.035Z,18.97
2018-06-05T00:25:09.059Z,18.83
2018-06-05T00:26:09.064Z,18.84
2018-06-05T00:27:09.080Z,18.87
2018-06-05T00:28:09.088Z,18.82
2018-06-05T00:29:09.127Z,18.72
2018-06-05T00:30:09.115Z,18.62
2018-06-05T00:31:09.129Z,18.50
2018-06-05T00:32:09.147Z,18.54
2018-06-05T00:33:09.154Z,18.37
2018-06-05T00:34:09.170Z,18.39
2018-06-05T00:35:09.192Z,18.40
2018-06-05T00:36:09.189Z,18.42
2018-06-05T00:37:09.203Z,18.39
2018-06-05T00:38:09.223Z,18.46
2018-06-05T00:39:09.231Z,18.42
2018-06-05T00:40:09.244Z,18.34
2018-06-05T00:41:09.275Z,18.33
2018-06-05T00:42:09.272Z,18.31
2018-06-05T00:43:09.283Z,18.10
2018-06-05T00:44:09.302Z,18.15
2018-06-05T00:45:09.306Z,18.18
2018-06-05T00:46:09.330Z,18.19
2018-06-05T00:47:09.340Z,18.24
2018-06-05T00:48:09.347Z,18.29
2018-06-05T00:49:09.402Z,18.39
2018-06-05T00:50:09.371Z,18.44
2018-06-05T00:51:09.386Z,18.46
2018-06-05T00:52:09.400Z,18.42
2018-06-05T00:53:09.420Z,18.46
2018-06-05T00:54:09.421Z,18.47
2018-06-05T00:55:09.434Z,18.44
2018-06-05T00:56:09.446Z,18.43
2018-06-05T00:57:09.459Z,18.37
2018-06-05T00:58:09.472Z,18.40
2018-06-05T00:59:09.488Z,18.33
2018-06-05T01:00:09.497Z,18.40
2018-06-05T01:01:09.511Z,18.40
2018-06-05T01:02:09.527Z,18.29
2018-06-05T01:03:09.540Z,18.36
2018-06-05T01:04:09.550Z,18.36
2018-06-05T01:05:09.567Z,18.22
2018-06-05T01:06:09.580Z,18.21
2018-06-05T01:07:09.589Z,18.15
2018-06-05T01:08:09.601Z,18.15
2018-06-05T01:09:09.612Z,17.97
2018-06-05T01:10:09.624Z,17.88
2018-06-05T01:11:09.643Z,17.87
2018-06-05T01:12:09.647Z,17.85
2018-06-05T01:13:09.670Z,17.85
2018-06-05T01:14:09.680Z,17.84
2018-06-05T01:15:09.687Z,17.78
2018-06-05T01:16:09.698Z,17.67
2018-06-05T01:17:09.715Z,17.55
2018-06-05T01:18:09.730Z,17.53
2018-06-05T01:19:09.737Z,17.62
2018-06-05T01:20:09.749Z,17.71
2018-06-05T01:21:09.766Z,17.59
2018-06-05T01:22:09.777Z,17.62
2018-06-05T01:23:09.805Z,17.78
2018-06-05T01:24:09.808Z,17.82
2018-06-05T01:25:09.812Z,17.85
2018-06-05T01:26:09.828Z,17.84
2018-06-05T01:27:09.840Z,17.88
2018-06-05T01:28:09.849Z,18.02
2018-06-05T01:29:09.871Z,18.00
2018-06-05T01:30:09.882Z,18.07
2018-06-05T01:31:09.897Z,18.00
2018-06-05T01:32:09.908Z,17.87
2018-06-05T01:33:09.913Z,17.87
2018-06-05T01:34:09.933Z,17.91
2018-06-05T01:35:09.939Z,17.87
2018-06-05T01:36:09.973Z,17.81
2018-06-05T01:37:09.964Z,17.88
2018-06-05T01:38:09.977Z,17.89
2018-06-05T01:39:10.018Z,17.95
2018-06-05T01:40:10.000Z,18.04
2018-06-05T01:41:10.013Z,18.12
2018-06-05T01:42:10.031Z,18.10
2018-06-05T01:43:10.043Z,18.10
2018-06-05T01:44:10.056Z,18.10
2018-06-05T01:45:10.059Z,18.09
2018-06-05T01:46:10.079Z,18.18
2018-06-05T01:47:10.088Z,18.09
2018-06-05T01:48:10.096Z,18.10
2018-06-05T01:49:10.118Z,18.09
2018-06-05T01:50:10.122Z,18.17
2018-06-05T01:51:10.136Z,18.06
2018-06-05T01:52:10.148Z,17.97
2018-06-05T01:53:10.160Z,18.04
2018-06-05T01:54:10.172Z,18.03
2018-06-05T01:55:10.191Z,17.95
2018-06-05T01:56:10.223Z,17.97
2018-06-05T01:57:10.214Z,18.02
2018-06-05T01:58:10.226Z,17.95
2018-06-05T01:59:10.236Z,17.91
2018-06-05T02:00:10.247Z,17.87
2018-06-05T02:01:10.262Z,17.94
2018-06-05T02:02:10.269Z,17.92
2018-06-05T02:03:10.299Z,17.97
2018-06-05T02:04:10.298Z,18.06
2018-06-05T02:05:10.311Z,17.99
2018-06-05T02:06:10.320Z,17.92
2018-06-05T02:07:10.342Z,17.82
2018-06-05T02:08:10.343Z,17.70
2018-06-05T02:09:10.362Z,17.62
2018-06-05T02:10:10.369Z,17.67
2018-06-05T02:11:10.383Z,17.59
2018-06-05T02:12:10.395Z,17.40
2018-06-05T02:13:10.408Z,17.46
2018-06-05T02:14:10.420Z,17.38
2018-06-05T02:15:10.442Z,17.20
2018-06-05T02:16:10.441Z,17.20
2018-06-05T02:17:10.469Z,17.11
2018-06-05T02:18:10.467Z,17.13
2018-06-05T02:19:10.482Z,17.15
2018-06-05T02:20:10.492Z,17.15
2018-06-05T02:21:10.511Z,17.17
2018-06-05T02:22:10.517Z,17.08
2018-06-05T02:23:10.529Z,16.99
2018-06-05T02:24:10.540Z,16.90
2018-06-05T02:25:10.553Z,16.96
2018-06-05T02:26:10.572Z,17.04
2018-06-05T02:27:10.612Z,17.00
2018-06-05T02:28:10.598Z,16.92
2018-06-05T02:29:10.602Z,17.00
2018-06-05T02:30:10.614Z,17.18
2018-06-05T02:31:10.626Z,17.10
2018-06-05T02:32:10.641Z,17.04
2018-06-05T02:33:10.681Z,16.96
2018-06-05T02:34:10.716Z,16.96
2018-06-05T02:35:10.683Z,17.06
2018-06-05T02:36:10.694Z,17.08
2018-06-05T02:37:10.702Z,17.14
2018-06-05T02:38:10.713Z,17.13
2018-06-05T02:39:10.725Z,17.13
2018-06-05T02:40:10.756Z,17.13
2018-06-05T02:41:10.748Z,17.13
2018-06-05T02:42:10.760Z,17.08
2018-06-05T02:43:10.778Z,17.15
2018-06-05T02:44:10.782Z,17.15
2018-06-05T02:45:10.800Z,17.20
2018-06-05T02:46:10.805Z,17.14
2018-06-05T02:47:10.819Z,17.23
2018-06-05T02:48:10.828Z,17.22
2018-06-05T02:49:10.846Z,17.30
2018-06-05T02:50:10.869Z,17.36
2018-06-05T02:51:10.903Z,17.35
2018-06-05T02:52:10.881Z,17.22
2018-06-05T02:53:10.906Z,17.11
2018-06-05T02:54:10.903Z,17.22
2018-06-05T02:55:10.916Z,17.20
2018-06-05T02:56:10.926Z,17.18
2018-06-05T02:57:10.975Z,17.30
2018-06-05T02:58:10.951Z,17.23
2018-06-05T02:59:10.962Z,17.36
2018-06-05T03:00:10.980Z,17.29
2018-06-05T03:01:10.985Z,17.22
2018-06-05T03:02:10.999Z,17.13
2018-06-05T03:03:11.018Z,17.03
2018-06-05T03:04:11.020Z,16.98
2018-06-05T03:05:11.033Z,16.86
2018-06-05T03:06:11.050Z,16.86
2018-06-05T03:07:11.058Z,16.80
2018-06-05T03:08:11.068Z,16.81
2018-06-05T03:09:11.084Z,16.75
2018-06-05T03:10:11.096Z,16.70
2018-06-05T03:11:11.116Z,16.65
2018-06-05T03:12:11.114Z,16.53
2018-06-05T03:13:11.127Z,16.50
2018-06-05T03:14:11.146Z,16.53
2018-06-05T03:15:11.164Z,16.41
2018-06-05T03:16:11.164Z,16.40
2018-06-05T03:17:11.174Z,16.40
2018-06-05T03:18:11.193Z,16.41
2018-06-05T03:19:11.202Z,16.38
2018-06-05T03:20:11.214Z,16.38
2018-06-05T03:21:11.234Z,16.26
2018-06-05T03:22:11.235Z,16.18
2018-06-05T03:23:11.254Z,16.25
2018-06-05T03:24:11.262Z,16.27
2018-06-05T03:25:11.268Z,16.16
2018-06-05T03:26:11.283Z,16.40
2018-06-05T03:27:11.295Z,16.45
2018-06-05T03:28:11.311Z,16.45
2018-06-05T03:29:11.321Z,16.41
2018-06-05T03:30:11.330Z,16.42
2018-06-05T03:31:11.345Z,16.45
2018-06-05T03:32:11.354Z,16.49
2018-06-05T03:33:11.365Z,16.42
2018-06-05T03:34:11.389Z,16.45
2018-06-05T03:35:11.386Z,16.49
2018-06-05T03:36:11.399Z,16.41
2018-06-05T03:37:11.411Z,16.35
2018-06-05T03:38:11.421Z,16.41
2018-06-05T03:39:11.435Z,16.31
2018-06-05T03:40:11.459Z,16.38
2018-06-05T03:41:11.456Z,16.26
2018-06-05T03:42:11.469Z,16.18
2018-06-05T03:43:11.481Z,16.33
2018-06-05T03:44:11.500Z,16.34
2018-06-05T03:45:11.506Z,16.48
2018-06-05T03:46:11.515Z,16.49
2018-06-05T03:47:11.533Z,16.56
2018-06-05T03:48:11.543Z,16.37
2018-06-05T03:49:11.566Z,16.45
2018-06-05T03:50:11.562Z,16.27
2018-06-05T03:51:11.575Z,16.34
2018-06-05T03:52:11.585Z,16.38
2018-06-05T03:53:11.598Z,16.37
2018-06-05T03:54:11.616Z,16.40
2018-06-05T03:55:11.621Z,16.40
2018-06-05T03:56:11.636Z,16.38
2018-06-05T03:57:11.686Z,16.37
2018-06-05T03:58:11.662Z,16.31
2018-06-05T03:59:11.668Z,16.37
2018-06-05T04:00:11.686Z,16.26
2018-06-05T04:01:11.689Z,16.27
2018-06-05T04:02:11.704Z,16.30
2018-06-05T04:03:11.943Z,16.33
2018-06-05T04:04:11.726Z,16.40
2018-06-05T04:05:11.736Z,16.59
2018-06-05T04:06:11.753Z,16.63
2018-06-05T04:07:11.767Z,16.74
2018-06-05T04:08:11.774Z,16.74
2018-06-05T04:09:11.783Z,16.67
2018-06-05T04:10:11.796Z,16.62
2018-06-05T04:11:11.810Z,16.62
2018-06-05T04:12:11.826Z,16.73
2018-06-05T04:13:11.836Z,16.77
2018-06-05T04:14:11.843Z,16.73
2018-06-05T04:15:11.851Z,16.85
2018-06-05T04:16:11.865Z,16.86
2018-06-05T04:17:11.877Z,16.89
2018-06-05T04:18:11.913Z,16.88
2018-06-05T04:19:11.900Z,16.89
2018-06-05T04:20:11.912Z,16.89
2018-06-05T04:21:11.923Z,16.81
2018-06-05T04:22:11.938Z,16.85
2018-06-05T04:23:11.950Z,17.04
2018-06-05T04:24:11.963Z,17.04
2018-06-05T04:25:11.972Z,16.86
2018-06-05T04:26:11.982Z,16.86
2018-06-05T04:27:12.017Z,16.85
2018-06-05T04:28:12.004Z,16.88
2018-06-05T04:29:12.016Z,16.81
2018-06-05T04:30:12.038Z,16.78
2018-06-05T04:31:12.047Z,16.80
2018-06-05T04:32:12.057Z,16.77
2018-06-05T04:33:12.065Z,16.65
2018-06-05T04:34:12.076Z,16.63
2018-06-05T04:35:12.086Z,16.60
2018-06-05T04:36:12.166Z,16.65
2018-06-05T04:37:12.110Z,16.60
2018-06-05T04:38:12.126Z,16.62
2018-06-05T04:39:12.135Z,16.68
2018-06-05T04:40:12.146Z,16.73
2018-06-05T04:41:12.158Z,16.62
2018-06-05T04:42:12.177Z,16.58
2018-06-05T04:43:12.179Z,16.65
2018-06-05T04:44:12.194Z,16.78
2018-06-05T04:45:12.212Z,16.77
2018-06-05T04:46:12.217Z,16.89
2018-06-05T04:47:12.237Z,16.88
2018-06-05T04:48:12.248Z,16.80
2018-06-05T04:49:12.264Z,16.88
2018-06-05T04:50:12.262Z,16.86
2018-06-05T04:51:12.277Z,16.88
2018-06-05T04:52:12.290Z,16.98
2018-06-05T04:53:12.345Z,17.06
2018-06-05T04:54:12.315Z,17.06
2018-06-05T04:55:12.327Z,17.14
2018-06-05T04:56:12.333Z,17.10
2018-06-05T04:57:12.346Z,17.08
2018-06-05T04:58:12.359Z,17.23
2018-06-05T04:59:12.368Z,17.29
2018-06-05T05:00:12.383Z,17.40
2018-06-05T05:01:12.392Z,17.44
2018-06-05T05:02:12.402Z,17.55
2018-06-05T05:03:12.417Z,17.55
2018-06-05T05:04:12.428Z,17.70
2018-06-05T05:05:12.437Z,17.79
2018-06-05T05:06:12.459Z,17.76
2018-06-05T05:07:12.462Z,17.87
2018-06-05T05:08:12.475Z,17.91
2018-06-05T05:09:12.487Z,18.02
2018-06-05T05:10:12.498Z,18.15
2018-06-05T05:11:12.511Z,18.12
2018-06-05T05:12:12.528Z,18.13
2018-06-05T05:13:12.536Z,18.33
2018-06-05T05:14:12.547Z,18.33
2018-06-05T05:15:12.560Z,18.46
2018-06-05T05:16:12.571Z,18.43
2018-06-05T05:17:12.587Z,18.49
2018-06-05T05:18:12.602Z,18.55
2018-06-05T05:19:12.612Z,18.61
2018-06-05T05:20:12.623Z,18.50
2018-06-05T05:21:12.632Z,18.57
2018-06-05T05:22:12.646Z,18.61
2018-06-05T05:23:12.680Z,18.43
2018-06-05T05:24:12.675Z,18.52
2018-06-05T05:25:12.686Z,18.62
2018-06-05T05:26:12.697Z,18.62
2018-06-05T05:27:12.707Z,18.76
2018-06-05T05:28:12.721Z,18.77
2018-06-05T05:29:12.740Z,18.77
2018-06-05T05:30:12.744Z,18.70
2018-06-05T05:31:12.760Z,18.72
2018-06-05T05:32:12.771Z,18.70
2018-06-05T05:33:12.783Z,18.62
2018-06-05T05:34:12.796Z,18.68
2018-06-05T05:35:12.812Z,18.72
2018-06-05T05:36:12.819Z,18.79
2018-06-05T05:37:12.832Z,18.79
2018-06-05T05:38:12.849Z,18.74
2018-06-05T05:39:12.914Z,18.86
2018-06-05T05:40:12.873Z,18.90
2018-06-05T05:41:12.899Z,18.92
2018-06-05T05:42:12.897Z,18.97
2018-06-05T05:43:12.909Z,18.94
2018-06-05T05:44:12.919Z,18.95
2018-06-05T05:45:12.934Z,18.87
2018-06-05T05:46:12.945Z,18.87
2018-06-05T05:47:12.964Z,18.82
2018-06-05T05:48:12.968Z,18.86
2018-06-05T05:49:12.983Z,18.87
2018-06-05T05:50:12.998Z,18.99
2018-06-05T05:51:13.009Z,19.14
2018-06-05T05:52:13.022Z,19.17
2018-06-05T05:53:13.034Z,19.01
2018-06-05T05:54:13.051Z,19.17
2018-06-05T05:55:13.059Z,19.17
2018-06-05T05:56:13.076Z,19.13
2018-06-05T05:57:13.086Z,18.99
2018-06-05T05:58:13.098Z,19.10
2018-06-05T05:59:13.114Z,19.08
2018-06-05T06:00:13.127Z,19.14
2018-06-05T06:01:13.146Z,19.18
2018-06-05T06:02:13.150Z,19.31
2018-06-05T06:03:13.166Z,19.28
2018-06-05T06:04:13.176Z,19.36
2018-06-05T06:05:13.198Z,19.43
2018-06-05T06:06:13.202Z,19.42
2018-06-05T06:07:13.224Z,19.50
2018-06-05T06:08:13.227Z,19.61
2018-06-05T06:09:13.240Z,19.55
2018-06-05T06:10:13.255Z,19.48
2018-06-05T06:11:13.265Z,19.55
2018-06-05T06:12:13.280Z,19.61
2018-06-05T06:13:13.297Z,19.54
2018-06-05T06:14:13.304Z,19.61
2018-06-05T06:15:13.318Z,19.68
2018-06-05T06:16:13.330Z,19.57
2018-06-05T06:17:13.344Z,19.36
2018-06-05T06:18:13.357Z,19.43
2018-06-05T06:19:13.379Z,19.47
2018-06-05T06:20:13.387Z,19.57
2018-06-05T06:21:13.395Z,19.57
2018-06-05T06:22:13.409Z,19.72
2018-06-05T06:23:13.421Z,19.73
2018-06-05T06:24:13.433Z,19.75
2018-06-05T06:25:13.454Z,19.80
2018-06-05T06:26:13.465Z,19.84
2018-06-05T06:27:13.472Z,19.90
2018-06-05T06:28:13.486Z,19.91
2018-06-05T06:29:13.501Z,19.88
2018-06-05T06:30:13.512Z,19.98
2018-06-05T06:31:13.525Z,19.91
2018-06-05T06:32:13.544Z,19.98
2018-06-05T06:33:13.554Z,20.00
2018-06-05T06:34:13.562Z,19.86
2018-06-05T06:35:13.577Z,19.91
2018-06-05T06:36:13.585Z,19.84
2018-06-05T06:37:13.599Z,20.00
2018-06-05T06:38:13.616Z,19.90
2018-06-05T06:39:13.627Z,19.94
2018-06-05T06:40:13.644Z,20.05
2018-06-05T06:41:13.657Z,20.10
2018-06-05T06:42:13.664Z,20.09
2018-06-05T06:43:13.685Z,20.16
2018-06-05T06:44:13.693Z,20.12
2018-06-05T06:45:13.700Z,20.12
2018-06-05T06:46:13.716Z,20.15
2018-06-05T06:47:13.933Z,20.18
2018-06-05T06:48:13.743Z,20.21
2018-06-05T06:49:13.778Z,20.25
2018-06-05T06:50:13.769Z,20.27
2018-06-05T06:51:13.777Z,20.35
2018-06-05T06:52:13.790Z,20.43
2018-06-05T06:53:13.805Z,20.50
2018-06-05T06:54:13.826Z,20.43
2018-06-05T06:55:13.829Z,20.51
2018-06-05T06:56:13.856Z,20.47
2018-06-05T06:57:13.853Z,20.46
2018-06-05T06:58:13.868Z,20.51
2018-06-05T06:59:13.884Z,20.43
2018-06-05T07:00:13.899Z,20.56
2018-06-05T07:01:13.906Z,20.43
2018-06-05T07:02:13.927Z,20.49
2018-06-05T07:03:13.940Z,20.49
2018-06-05T07:04:13.947Z,20.35
2018-06-05T07:05:13.964Z,20.46
2018-06-05T07:06:13.989Z,20.49
2018-06-05T07:07:13.986Z,20.53
2018-06-05T07:08:13.996Z,20.65
2018-06-05T07:09:14.009Z,20.69
2018-06-05T07:10:14.024Z,20.83
2018-06-05T07:11:14.050Z,20.76
2018-06-05T07:12:14.078Z,20.74
2018-06-05T07:13:14.061Z,20.74
2018-06-05T07:14:14.075Z,20.71
2018-06-05T07:15:14.088Z,20.71
2018-06-05T07:16:14.102Z,20.71
2018-06-05T07:17:14.124Z,20.76
2018-06-05T07:18:14.131Z,20.71
2018-06-05T07:19:14.146Z,20.79
2018-06-05T07:20:14.155Z,20.77
2018-06-05T07:21:14.168Z,20.74
2018-06-05T07:22:14.179Z,20.72
2018-06-05T07:23:14.193Z,20.69
2018-06-05T07:24:14.214Z,20.83
2018-06-05T07:25:14.219Z,20.93
2018-06-05T07:26:14.360Z,20.96
2018-06-05T07:27:14.246Z,21.02
2018-06-05T07:28:14.271Z,21.13
2018-06-05T07:29:14.270Z,21.13
2018-06-05T07:30:14.296Z,21.14
2018-06-05T07:31:14.305Z,20.95
2018-06-05T07:32:14.311Z,20.98
2018-06-05T07:33:14.332Z,20.98
2018-06-05T07:34:14.336Z,20.99
2018-06-05T07:35:14.351Z,20.99
2018-06-05T07:36:14.363Z,21.11
2018-06-05T07:37:14.388Z,21.30
2018-06-05T07:38:14.391Z,21.30
2018-06-05T07:39:14.405Z,21.42
2018-06-05T07:40:14.417Z,21.35
2018-06-05T07:41:14.430Z,21.45
2018-06-05T07:42:14.452Z,21.53
2018-06-05T07:43:14.463Z,21.56
2018-06-05T07:44:14.472Z,21.53
2018-06-05T07:45:14.514Z,21.56
2018-06-05T07:46:14.508Z,21.56
2018-06-05T07:47:14.542Z,21.64
2018-06-05T07:48:14.545Z,21.54
2018-06-05T07:49:14.545Z,21.59
2018-06-05T07:50:14.548Z,21.42
2018-06-05T07:51:14.567Z,21.39
2018-06-05T07:52:14.580Z,21.38
2018-06-05T07:53:14.591Z,21.39
2018-06-05T07:54:14.606Z,21.30
2018-06-05T07:55:14.631Z,21.34
2018-06-05T07:56:14.632Z,21.44
2018-06-05T07:57:14.652Z,21.50
2018-06-05T07:58:14.706Z,21.50
2018-06-05T07:59:14.670Z,21.66
2018-06-05T08:00:14.691Z,21.57
2018-06-05T08:01:14.717Z,21.57
2018-06-05T08:02:14.719Z,21.61
2018-06-05T08:03:14.726Z,21.60
2018-06-05T08:04:14.743Z,21.69
2018-06-05T08:05:14.752Z,21.69
2018-06-05T08:06:14.765Z,21.74
2018-06-05T08:07:14.778Z,21.79
2018-06-05T08:08:14.793Z,21.82
2018-06-05T08:09:14.816Z,21.76
2018-06-05T08:10:14.819Z,21.78
2018-06-05T08:11:14.832Z,21.74
2018-06-05T08:12:14.847Z,21.75
2018-06-05T08:13:14.863Z,21.75
2018-06-05T08:14:14.874Z,21.76
2018-06-05T08:15:14.891Z,21.85
2018-06-05T08:16:14.900Z,21.85
2018-06-05T08:17:14.913Z,21.91
2018-06-05T08:18:14.939Z,21.99
2018-06-05T08:19:14.941Z,22.12
2018-06-05T08:20:14.956Z,22.16
2018-06-05T08:21:14.975Z,22.23
2018-06-05T08:22:14.982Z,22.31
2018-06-05T08:23:15.003Z,22.29
2018-06-05T08:24:15.011Z,22.31
2018-06-05T08:25:15.035Z,22.31
2018-06-05T08:26:15.040Z,22.27
2018-06-05T08:27:15.056Z,22.38
2018-06-05T08:28:15.070Z,22.39
2018-06-05T08:29:15.079Z,22.43
2018-06-05T08:30:15.095Z,22.44
2018-06-05T08:31:15.105Z,22.57
2018-06-05T08:32:15.120Z,22.52
2018-06-05T08:33:15.145Z,22.62
2018-06-05T08:34:15.149Z,22.71
2018-06-05T08:35:15.161Z,22.64
2018-06-05T08:36:15.176Z,22.68
2018-06-05T08:37:15.189Z,22.50
2018-06-05T08:38:15.204Z,22.59
2018-06-05T08:39:15.222Z,22.54
2018-06-05T08:40:15.239Z,22.43
2018-06-05T08:41:15.247Z,22.50
2018-06-05T08:42:15.260Z,22.44
2018-06-05T08:43:15.274Z,22.50
2018-06-05T08:44:15.286Z,22.52
2018-06-05T08:45:15.313Z,22.53
2018-06-05T08:46:15.325Z,22.53
2018-06-05T08:47:15.329Z,22.49
2018-06-05T08:48:15.342Z,22.39
2018-06-05T08:49:15.358Z,22.35
2018-06-05T08:50:15.371Z,22.35
2018-06-05T08:51:15.387Z,22.35
2018-06-05T08:52:15.406Z,22.28
2018-06-05T08:53:15.415Z,22.28
2018-06-05T08:54:15.459Z,22.31
2018-06-05T08:55:15.443Z,22.32
2018-06-05T08:56:15.455Z,22.27
2018-06-05T08:57:15.471Z,22.31
2018-06-05T08:58:15.493Z,22.41
2018-06-05T08:59:15.496Z,22.41
2018-06-05T09:00:15.511Z,22.52
2018-06-05T09:01:15.527Z,22.54
2018-06-05T09:02:15.539Z,22.53
2018-06-05T09:03:15.554Z,22.59
2018-06-05T09:04:15.567Z,22.56
2018-06-05T09:05:15.622Z,22.64
2018-06-05T09:06:15.600Z,22.67
2018-06-05T09:07:15.611Z,22.74
2018-06-05T09:08:15.626Z,22.68
2018-06-05T09:09:15.641Z,22.67
2018-06-05T09:10:15.652Z,22.77
2018-06-05T09:11:15.668Z,22.93
2018-06-05T09:12:15.690Z,22.90
2018-06-05T09:13:15.697Z,22.89
2018-06-05T09:14:15.708Z,22.96
2018-06-05T09:15:15.725Z,22.90
2018-06-05T09:16:15.734Z,22.92
2018-06-05T09:17:15.755Z,22.86
2018-06-05T09:18:15.770Z,22.93
2018-06-05T09:19:15.785Z,22.92
2018-06-05T09:20:15.792Z,22.82
2018-06-05T09:21:15.807Z,22.90
2018-06-05T09:22:15.822Z,22.80
2018-06-05T09:23:15.844Z,22.80
2018-06-05T09:24:15.851Z,22.99
2018-06-05T09:25:15.871Z,23.20
2018-06-05T09:26:15.880Z,23.20
2018-06-05T09:27:16.705Z,23.39
2018-06-05T09:28:15.910Z,23.40
2018-06-05T09:29:15.926Z,23.29
2018-06-05T09:30:15.947Z,23.38
2018-06-05T09:31:15.967Z,23.38
2018-06-05T09:32:15.964Z,23.43
2018-06-05T09:33:15.988Z,23.52
2018-06-05T09:34:16.000Z,23.50
2018-06-05T09:35:16.011Z,23.52
2018-06-05T09:36:16.019Z,23.55
2018-06-05T09:37:16.065Z,23.52
2018-06-05T09:38:16.052Z,23.68
2018-06-05T09:39:16.076Z,23.72
2018-06-05T09:40:16.082Z,23.58
2018-06-05T09:41:16.097Z,23.70
2018-06-05T09:42:16.111Z,23.67
2018-06-05T09:43:16.124Z,23.82
2018-06-05T09:44:16.142Z,23.95
2018-06-05T09:45:16.187Z,23.97
2018-06-05T09:46:16.174Z,24.02
2018-06-05T09:47:16.187Z,24.04
2018-06-05T09:48:16.195Z,24.05
2018-06-05T09:49:16.218Z,23.97
2018-06-05T09:50:16.223Z,23.95
2018-06-05T09:51:16.263Z,24.12
2018-06-05T09:52:16.359Z,24.13
2018-06-05T09:53:16.703Z,24.10
2018-06-05T09:54:16.283Z,24.22
2018-06-05T09:55:16.298Z,24.23
2018-06-05T09:56:16.314Z,24.24
2018-06-05T09:57:16.331Z,24.26
2018-06-05T09:58:16.485Z,24.27
2018-06-05T09:59:16.388Z,24.29
2018-06-05T10:00:16.373Z,24.29
2018-06-05T10:01:16.388Z,24.35
2018-06-05T10:02:16.407Z,24.37
2018-06-05T10:03:16.415Z,24.23
2018-06-05T10:04:16.434Z,24.24
2018-06-05T10:05:16.445Z,24.76
2018-06-05T10:06:16.473Z,24.88
2018-06-05T10:07:16.481Z,25.09
2018-06-05T10:08:16.493Z,25.15
2018-06-05T10:09:16.511Z,25.32
2018-06-05T10:10:16.522Z,25.32
2018-06-05T10:11:16.536Z,25.38
2018-06-05T10:12:16.562Z,25.43
2018-06-05T10:13:16.583Z,25.35
2018-06-05T10:14:16.582Z,25.49
2018-06-05T10:15:16.600Z,25.56
2018-06-05T10:16:16.609Z,25.56
2018-06-05T10:17:16.631Z,25.53
2018-06-05T10:18:16.642Z,25.72
2018-06-05T10:19:17.037Z,25.59
2018-06-05T10:20:16.731Z,25.74
2018-06-05T10:21:16.684Z,25.83
2018-06-05T10:22:16.704Z,25.83
2018-06-05T10:23:16.812Z,25.82
2018-06-05T10:24:16.732Z,25.80
2018-06-05T10:25:16.746Z,25.77
2018-06-05T10:26:16.763Z,25.74
2018-06-05T10:27:16.778Z,25.80
2018-06-05T10:28:16.856Z,25.90
2018-06-05T10:29:16.806Z,25.90
2018-06-05T10:30:16.828Z,26.01
2018-06-05T10:31:16.843Z,25.87
2018-06-05T10:32:16.855Z,25.91
2018-06-05T10:33:16.868Z,25.83
2018-06-05T10:34:16.895Z,25.89
2018-06-05T10:35:16.905Z,25.99
2018-06-05T10:36:16.928Z,25.94
2018-06-05T10:37:16.932Z,25.97
2018-06-05T10:38:16.954Z,25.94
2018-06-05T10:39:16.960Z,25.87
2018-06-05T10:40:17.050Z,25.91
2018-06-05T10:41:16.994Z,25.99
2018-06-05T10:42:17.007Z,26.01
2018-06-05T10:43:17.024Z,26.12
2018-06-05T10:44:17.039Z,26.15
2018-06-05T10:45:17.668Z,26.18
2018-06-05T10:46:17.068Z,26.09
2018-06-05T10:47:17.090Z,26.15
2018-06-05T10:48:17.118Z,26.05
2018-06-05T10:49:17.117Z,26.01
2018-06-05T10:50:17.131Z,26.18
2018-06-05T10:51:17.148Z,26.11
2018-06-05T10:52:17.164Z,26.25
2018-06-05T10:53:17.175Z,26.39
2018-06-05T10:54:17.192Z,26.43
2018-06-05T10:55:17.216Z,26.52
2018-06-05T10:56:17.225Z,26.57
2018-06-05T10:57:17.239Z,26.58
2018-06-05T10:58:17.255Z,26.55
2018-06-05T10:59:17.277Z,26.61
2018-06-05T11:00:17.289Z,26.73
2018-06-05T11:01:17.336Z,26.86
2018-06-05T11:02:17.318Z,26.99
2018-06-05T11:03:17.337Z,26.91
2018-06-05T11:04:17.351Z,27.01
2018-06-05T11:05:17.367Z,27.10
2018-06-05T11:06:17.404Z,27.19
2018-06-05T11:07:17.397Z,27.26
2018-06-05T11:08:17.419Z,27.36
2018-06-05T11:09:17.466Z,27.33
2018-06-05T11:10:17.453Z,27.51
2018-06-05T11:11:17.490Z,27.61
2018-06-05T11:12:17.482Z,27.74
2018-06-05T11:13:17.492Z,27.77
2018-06-05T11:14:17.516Z,27.95
2018-06-05T11:15:17.550Z,27.94
2018-06-05T11:16:17.576Z,27.94
2018-06-05T11:17:17.560Z,27.91
2018-06-05T11:18:17.597Z,27.74
2018-06-05T11:19:17.592Z,27.59
2018-06-05T11:20:17.607Z,27.85
2018-06-05T11:21:17.630Z,27.95
2018-06-05T11:22:17.659Z,27.98
2018-06-05T11:23:17.658Z,28.11
2018-06-05T11:24:17.674Z,28.21
2018-06-05T11:25:17.690Z,28.11
2018-06-05T11:26:17.709Z,28.22
2018-06-05T11:27:17.723Z,28.46
2018-06-05T11:28:17.778Z,28.46
2018-06-05T11:29:17.757Z,28.69
2018-06-05T11:30:17.773Z,28.97
2018-06-05T11:31:17.790Z,29.52
2018-06-05T11:32:17.806Z,29.92
2018-06-05T11:33:17.824Z,30.36
2018-06-05T11:34:17.874Z,30.56
2018-06-05T11:35:17.859Z,29.81
2018-06-05T11:36:17.879Z,29.72
2018-06-05T11:37:17.896Z,30.56
2018-06-05T11:38:17.917Z,31.15
2018-06-05T11:39:17.936Z,32.06
2018-06-05T11:40:17.964Z,32.43
2018-06-05T11:41:17.976Z,32.58
2018-06-05T11:42:17.999Z,32.91
2018-06-05T11:43:18.018Z,33.19
2018-06-05T11:44:18.036Z,33.30
2018-06-05T11:45:18.060Z,33.53
2018-06-05T11:46:18.092Z,33.97
2018-06-05T11:47:18.105Z,34.09
2018-06-05T11:48:18.132Z,34.20
2018-06-05T11:49:18.154Z,34.48
2018-06-05T11:50:18.181Z,34.94
2018-06-05T11:51:18.201Z,34.76
2018-06-05T11:52:18.225Z,34.98
2018-06-05T11:53:18.244Z,35.63
2018-06-05T11:54:18.325Z,35.63
2018-06-05T11:55:18.296Z,35.82
2018-06-05T11:56:18.320Z,35.48
2018-06-05T11:57:18.350Z,35.74
2018-06-05T11:58:18.400Z,36.17
2018-06-05T11:59:18.400Z,36.36
2018-06-05T12:00:18.424Z,36.27
2018-06-05T12:01:18.447Z,36.63
2018-06-05T12:02:18.478Z,36.75
2018-06-05T12:03:18.501Z,36.39
2018-06-05T12:04:18.527Z,36.64
2018-06-05T12:05:18.582Z,36.49
2018-06-05T12:06:18.582Z,36.87
2018-06-05T12:07:18.620Z,36.68
2018-06-05T12:08:18.675Z,36.41
2018-06-05T12:09:18.677Z,36.52
2018-06-05T12:10:18.695Z,36.72
2018-06-05T12:11:18.741Z,36.79
2018-06-05T12:12:18.750Z,36.98
2018-06-05T12:13:18.779Z,37.02
2018-06-05T12:14:18.805Z,36.85
2018-06-05T12:15:18.837Z,37.32
2018-06-05T12:16:18.872Z,37.33
2018-06-05T12:17:18.892Z,37.76
2018-06-05T12:18:18.925Z,37.70
2018-06-05T12:19:18.952Z,37.01
2018-06-05T12:20:18.980Z,36.90
2018-06-05T12:21:19.009Z,35.33
2018-06-05T12:22:19.047Z,34.22
2018-06-05T12:23:19.067Z,33.58
2018-06-05T12:24:19.100Z,33.08
2018-06-05T12:25:19.124Z,32.51
2018-06-05T12:26:19.161Z,33.08
2018-06-05T12:27:19.184Z,34.23
2018-06-05T12:28:19.206Z,34.88
2018-06-05T12:29:19.231Z,35.35
2018-06-05T12:30:19.257Z,36.17
2018-06-05T12:31:19.291Z,36.82
2018-06-05T12:32:19.309Z,36.48
2018-06-05T12:33:19.347Z,36.98
2018-06-05T12:34:19.372Z,36.99
2018-06-05T12:35:19.397Z,37.19
2018-06-05T12:36:19.433Z,37.38
2018-06-05T12:37:19.454Z,37.58
2018-06-05T12:38:19.475Z,37.05
2018-06-05T12:39:19.504Z,37.31
2018-06-05T12:40:19.534Z,37.90
2018-06-05T12:41:19.563Z,37.28
2018-06-05T12:42:19.593Z,36.97
2018-06-05T12:43:19.633Z,37.12
2018-06-05T12:44:19.652Z,37.10
2018-06-05T12:45:19.673Z,36.98
2018-06-05T12:46:19.711Z,37.14
2018-06-05T12:47:19.730Z,36.97
2018-06-05T12:48:19.798Z,37.12
2018-06-05T12:49:19.795Z,37.38
2018-06-05T12:50:19.819Z,37.80
2018-06-05T12:51:19.854Z,37.68
2018-06-05T12:52:19.887Z,37.66